Hector International Airport

Airport
ICAO code: 
KFAR
Summary
ICAO Region: 
NAM
Territory: 
Location: 
Fargo, North Dakota,
Elevation: 
902 ft
Coordinates: 
Aerial View: 
46° 55' 12.296" N, 96° 49' 32.51" W
Airport CFIT: 
Altimeter Temperature Error Correction
Airport GND: 
Aircraft Ground De/Anti Icing
Airport RE: 
Landing on Contaminated Runways
Airport WX: 
Cumulonimbus
Metar
Observation
KFAR 020853Z 28011KT 10SM CLR 01/M03 A2978 RMK AO2 SLP090 T00111028 53026
Station
Fargo, Hector International Airport
Date/Time
2021-12-02 08:53:00
Wind direction
280°
Wind speed
11 kts
Lowest cloud amount
n/a
Temperature
1.1°C
Dew point
-2.8°C
Humidity
75%
Weather condition
n/a

Description

Hector International Airport is a joint civil-military (ANG) public airport located 5 km northwest of the central business district of Fargo, a city in Cass County, North Dakota.

Climatology

Humid Continental climate (Köppen climate classification Dfb) - Variable weather patterns and a large seasonal temperature variance. Summers are often warm and humid with frequent thunderstorms and winters can be very cold with frequent snowfall and persistent snow cover.

Runways

Designator Length Width Surface Rops
13/31 1158 46 PEM Yes/Yes
9/27 1920 30 CON Yes/Yes
18/36 2743 46 CON Yes/Yes
Airport map: 
Aerial View: 

SKYbrary Partners:

Safety knowledge contributed by: